Time;durP1;ratioP1;P1;durP2;ratioP2;P2;SDS_P1;SDS_P2;PMS_P1;PMS_P2;Temp;Humidity;BMP_temperature;BMP_pressure;BME280_temperature;BME280_humidity;BME280_pressure;Samples;Min_cycle;Max_cycle;Signal;HPM_P1;HPM_P2
2021/12/21 00:02:03;;;;;;;5.43;3.22;;;16.70;56.60;;;;;;5051951;28;20186;-60
2021/12/21 00:04:28;;;;;;;4.18;3.30;;;16.70;56.70;;;;;;5052141;28;20171;-60
2021/12/21 00:07:01;;;;;;;4.40;3.47;;;16.70;56.70;;;;;;5052411;28;20171;-60
2021/12/21 00:09:26;;;;;;;4.05;2.92;;;16.70;56.60;;;;;;5052023;28;20182;-61
2021/12/21 00:11:52;;;;;;;3.60;2.97;;;16.60;56.50;;;;;;5052396;28;20550;-61
2021/12/21 00:14:48;;;;;;;4.38;3.00;;;16.60;56.50;;;;;;5051754;28;20991;-62
2021/12/21 00:18:01;;;;;;;3.85;3.00;;;16.60;56.50;;;;;;5052232;28;20206;-61
2021/12/21 00:20:24;;;;;;;6.28;3.28;;;16.60;56.50;;;;;;5046445;28;20187;-60
2021/12/21 00:25:17;;;;;;;4.95;3.50;;;16.60;56.40;;;;;;5052360;28;20205;-61
2021/12/21 00:27:44;;;;;;;4.97;3.10;;;16.60;56.30;;;;;;5050678;28;20183;-60
2021/12/21 00:30:10;;;;;;;5.22;3.10;;;16.60;56.40;;;;;;5051640;28;20175;-62
2021/12/21 00:32:35;;;;;;;4.38;3.28;;;16.50;56.30;;;;;;5051902;28;20207;-62
2021/12/21 00:35:01;;;;;;;3.63;3.20;;;16.60;56.40;;;;;;5052306;28;20167;-61
2021/12/21 00:37:29;;;;;;;3.42;2.83;;;16.50;56.20;;;;;;5050941;28;20179;-60
2021/12/21 00:39:55;;;;;;;4.28;3.65;;;16.50;56.20;;;;;;5052147;28;20175;-60
2021/12/21 00:42:20;;;;;;;3.63;3.30;;;16.50;56.20;;;;;;5050890;28;20197;-61
2021/12/21 00:44:46;;;;;;;3.85;3.10;;;16.50;56.10;;;;;;5051812;28;20233;-60
2021/12/21 00:47:14;;;;;;;3.67;3.17;;;16.50;56.10;;;;;;5051944;28;20360;-60
2021/12/21 00:49:44;;;;;;;3.40;3.10;;;16.40;56.10;;;;;;5050674;28;20599;-60
2021/12/21 00:52:10;;;;;;;4.78;3.40;;;16.40;56.00;;;;;;5051886;28;20173;-61
2021/12/21 00:54:35;;;;;;;3.50;3.03;;;16.40;56.10;;;;;;5051474;28;20175;-61
2021/12/21 00:57:04;;;;;;;3.42;2.80;;;16.40;56.00;;;;;;5050861;28;20171;-59
2021/12/21 00:59:32;;;;;;;4.47;2.97;;;16.40;56.00;;;;;;5051445;28;20634;-59
2021/12/21 01:01:58;;;;;;;3.72;2.83;;;16.40;56.00;;;;;;5052211;28;20170;-61
2021/12/21 01:04:30;;;;;;;4.13;3.15;;;16.40;56.00;;;;;;5051045;28;20625;-60
2021/12/21 01:07:16;;;;;;;4.40;3.20;;;16.40;55.90;;;;;;5051604;28;20167;-59
2021/12/21 01:10:12;;;;;;;4.47;3.00;;;16.40;55.90;;;;;;5051396;28;20175;-60
2021/12/21 01:12:46;;;;;;;4.28;2.83;;;16.40;55.80;;;;;;5050405;28;20658;-61
2021/12/21 01:15:23;;;;;;;3.20;2.90;;;16.30;55.80;;;;;;5051816;28;20210;-60
2021/12/21 01:18:03;;;;;;;3.80;3.10;;;16.30;55.80;;;;;;5050921;28;20179;-61
2021/12/21 01:25:40;;;;;;;3.58;2.58;;;16.20;55.70;;;;;;5050850;28;20163;-60
2021/12/21 01:30:55;;;;;;;4.00;3.45;;;16.30;55.70;;;;;;5051387;28;20190;-61
2021/12/21 01:36:15;;;;;;;3.25;2.95;;;16.20;55.70;;;;;;5051439;28;20178;-60
2021/12/21 01:38:54;;;;;;;3.78;2.75;;;16.20;55.60;;;;;;5050446;28;20201;-61
2021/12/21 01:41:35;;;;;;;3.50;2.78;;;16.20;55.60;;;;;;5050992;28;20199;-60
2021/12/21 01:44:22;;;;;;;4.38;2.95;;;16.20;55.60;;;;;;5051534;28;20252;-60
2021/12/21 01:52:06;;;;;;;3.88;2.83;;;16.20;55.50;;;;;;5051336;28;20171;-60
2021/12/21 01:54:31;;;;;;;3.80;2.92;;;16.20;55.60;;;;;;5050489;28;20191;-62
2021/12/21 01:56:57;;;;;;;4.22;3.38;;;16.20;55.50;;;;;;5051307;28;20237;-62
2021/12/21 01:59:22;;;;;;;4.82;3.40;;;16.10;55.50;;;;;;5050863;28;20309;-61
2021/12/21 02:01:50;;;;;;;4.45;3.42;;;16.10;55.50;;;;;;5050363;28;20571;-60
2021/12/21 02:04:17;;;;;;;3.85;3.45;;;16.10;55.50;;;;;;5051057;28;20233;-60
2021/12/21 02:06:43;;;;;;;3.75;3.08;;;16.10;55.40;;;;;;5050122;28;20179;-60
2021/12/21 02:09:09;;;;;;;3.60;3.25;;;16.10;55.40;;;;;;5051038;28;20229;-61
2021/12/21 02:11:34;;;;;;;4.15;3.28;;;16.10;55.40;;;;;;5050833;28;20184;-61
2021/12/21 02:14:00;;;;;;;4.50;3.03;;;16.10;55.40;;;;;;5048973;28;20210;-60
2021/12/21 02:16:45;;;;;;;3.30;2.80;;;16.10;55.40;;;;;;5050911;28;20277;-62
2021/12/21 02:19:24;;;;;;;3.60;3.00;;;16.10;55.40;;;;;;5053792;28;20183;-60
2021/12/21 02:21:53;;;;;;;4.32;3.33;;;16.00;55.30;;;;;;5053166;28;20231;-59
2021/12/21 02:24:24;;;;;;;3.90;3.15;;;16.00;55.30;;;;;;5054466;28;20634;-60
2021/12/21 02:29:17;;;;;;;5.75;3.45;;;16.00;55.30;;;;;;5053646;28;20189;-61
2021/12/21 02:31:48;;;;;;;3.33;3.03;;;16.00;55.30;;;;;;5054450;28;20197;-60
2021/12/21 02:34:15;;;;;;;4.95;3.00;;;16.00;55.30;;;;;;5054290;28;20241;-61
2021/12/21 02:36:41;;;;;;;3.83;3.22;;;16.00;55.30;;;;;;5053537;28;20202;-60
2021/12/21 02:39:07;;;;;;;4.10;2.90;;;15.90;55.30;;;;;;5054493;28;20183;-59
2021/12/21 02:41:36;;;;;;;3.83;3.22;;;15.90;55.30;;;;;;5053713;28;20171;-60
2021/12/21 02:44:01;;;;;;;5.28;3.45;;;15.90;55.30;;;;;;5053843;28;20183;-60
2021/12/21 02:46:27;;;;;;;3.35;2.88;;;15.90;55.30;;;;;;5054254;28;20167;-60
2021/12/21 02:48:53;;;;;;;3.40;3.00;;;15.90;55.30;;;;;;5053295;28;20223;-60
2021/12/21 02:51:19;;;;;;;3.90;3.38;;;15.90;55.30;;;;;;5053868;28;20193;-60
2021/12/21 02:53:44;;;;;;;4.10;3.70;;;15.90;55.20;;;;;;5054275;28;20653;-60
2021/12/21 02:56:11;;;;;;;5.30;3.58;;;15.90;55.20;;;;;;5053418;28;20172;-61
2021/12/21 02:58:40;;;;;;;3.85;2.92;;;15.90;55.30;;;;;;5053770;28;20207;-60
2021/12/21 03:01:06;;;;;;;5.00;3.38;;;15.90;55.30;;;;;;5053983;28;20228;-60
2021/12/21 03:03:31;;;;;;;4.05;3.17;;;15.90;55.20;;;;;;5052899;28;20187;-59
2021/12/21 03:05:58;;;;;;;3.92;2.95;;;15.80;55.20;;;;;;5054359;28;20250;-60
2021/12/21 03:08:35;;;;;;;4.20;3.40;;;15.90;55.20;;;;;;5053634;28;20661;-59
2021/12/21 03:11:14;;;;;;;4.85;3.42;;;15.80;55.10;;;;;;5053169;28;20182;-60
2021/12/21 03:16:24;;;;;;;4.85;3.25;;;15.80;55.10;;;;;;5053831;28;20508;-61
2021/12/21 03:18:51;;;;;;;3.70;2.92;;;15.80;55.10;;;;;;5052906;28;20182;-60
2021/12/21 03:21:17;;;;;;;4.28;3.58;;;15.80;55.10;;;;;;5053440;28;20229;-60
2021/12/21 03:23:42;;;;;;;3.80;3.20;;;15.80;55.10;;;;;;5053401;28;20171;-60
2021/12/21 03:26:08;;;;;;;3.45;3.13;;;15.70;55.00;;;;;;5052985;28;20167;-60
2021/12/21 03:28:36;;;;;;;5.00;3.55;;;15.80;55.10;;;;;;5053029;28;20186;-60
2021/12/21 03:31:02;;;;;;;5.90;3.60;;;15.70;55.10;;;;;;5052415;28;20179;-60
2021/12/21 03:33:28;;;;;;;3.88;3.33;;;15.70;55.00;;;;;;5053146;28;20225;-60
2021/12/21 03:35:53;;;;;;;4.03;3.20;;;15.70;55.10;;;;;;5053067;28;20207;-60
2021/12/21 03:38:19;;;;;;;5.05;3.47;;;15.70;55.10;;;;;;5052434;28;20278;-61
2021/12/21 03:40:44;;;;;;;3.80;3.10;;;15.70;55.00;;;;;;5053179;28;20206;-61
2021/12/21 03:43:10;;;;;;;4.30;3.40;;;15.70;55.00;;;;;;5053143;28;20182;-60
2021/12/21 03:45:41;;;;;;;3.67;3.13;;;15.70;55.00;;;;;;5052150;28;20183;-60
2021/12/21 03:48:06;;;;;;;3.92;3.20;;;15.70;55.00;;;;;;5052515;28;20284;-60
2021/12/21 03:50:34;;;;;;;5.35;3.60;;;15.70;55.00;;;;;;5052363;28;20187;-61
2021/12/21 03:53:00;;;;;;;6.50;3.50;;;15.70;55.00;;;;;;5052407;28;20600;-61
2021/12/21 03:55:25;;;;;;;4.18;3.42;;;15.60;54.90;;;;;;5052801;28;20206;-61
2021/12/21 03:57:51;;;;;;;4.75;3.20;;;15.60;55.00;;;;;;5052858;28;20171;-61
2021/12/21 04:00:17;;;;;;;4.18;3.60;;;15.60;55.50;;;;;;5052596;28;20179;-61
2021/12/21 04:02:43;;;;;;;3.88;3.03;;;15.60;54.90;;;;;;5052595;28;20202;-60
2021/12/21 04:05:09;;;;;;;4.82;3.22;;;15.60;54.90;;;;;;5052476;28;20547;-61
2021/12/21 04:07:34;;;;;;;4.18;3.47;;;15.60;54.90;;;;;;5051698;28;20266;-60
2021/12/21 04:10:00;;;;;;;3.75;3.33;;;15.60;54.90;;;;;;5052730;28;20641;-61
2021/12/21 04:12:25;;;;;;;3.75;3.10;;;15.60;54.90;;;;;;5052397;28;20182;-62
2021/12/21 04:14:52;;;;;;;4.47;3.53;;;15.60;54.90;;;;;;5051703;28;20194;-59
2021/12/21 04:17:22;;;;;;;4.18;3.75;;;15.60;55.00;;;;;;5052279;28;20187;-60
2021/12/21 04:19:47;;;;;;;3.97;3.20;;;15.60;54.90;;;;;;5052457;28;20629;-60
2021/12/21 04:22:14;;;;;;;4.00;3.60;;;15.50;54.90;;;;;;5052045;28;20179;-60
2021/12/21 04:24:39;;;;;;;6.15;3.90;;;15.50;54.90;;;;;;5052297;28;20237;-60
2021/12/21 04:27:05;;;;;;;4.82;3.85;;;15.60;54.90;;;;;;5052039;28;20575;-60
2021/12/21 04:29:30;;;;;;;4.40;3.22;;;15.50;54.90;;;;;;5051453;28;20257;-60
2021/12/21 04:31:56;;;;;;;4.10;3.63;;;15.50;54.90;;;;;;5052163;28;20225;-60
2021/12/21 04:34:21;;;;;;;3.40;3.08;;;15.50;54.90;;;;;;5051110;28;20669;-61
2021/12/21 04:36:47;;;;;;;3.90;3.60;;;15.50;54.80;;;;;;5052164;28;20183;-60
2021/12/21 04:39:26;;;;;;;4.55;3.83;;;15.50;54.90;;;;;;5052557;28;20638;-60
2021/12/21 04:41:52;;;;;;;4.05;3.30;;;15.50;54.80;;;;;;5050980;28;20178;-60
2021/12/21 04:44:17;;;;;;;4.85;3.53;;;15.50;54.80;;;;;;5052021;28;20183;-60
2021/12/21 04:46:43;;;;;;;3.72;3.42;;;15.40;54.80;;;;;;5051563;28;20548;-59
2021/12/21 04:49:08;;;;;;;4.32;3.40;;;15.40;54.80;;;;;;5051254;28;20179;-60
2021/12/21 04:51:34;;;;;;;4.05;3.42;;;15.40;54.80;;;;;;5051713;28;20206;-60
2021/12/21 04:53:59;;;;;;;4.70;3.08;;;15.40;54.80;;;;;;5051821;28;20245;-60
2021/12/21 04:56:25;;;;;;;3.97;3.17;;;15.40;54.80;;;;;;5051214;28;20229;-61
2021/12/21 04:58:50;;;;;;;4.22;3.78;;;15.40;54.80;;;;;;5051761;28;20206;-59
2021/12/21 05:01:16;;;;;;;4.47;3.53;;;15.40;54.80;;;;;;5051626;28;20167;-59
2021/12/21 05:03:41;;;;;;;5.22;3.65;;;15.40;54.80;;;;;;5051207;28;20171;-60
2021/12/21 05:06:07;;;;;;;4.60;3.88;;;15.30;54.70;;;;;;5051827;28;20175;-60
2021/12/21 05:08:39;;;;;;;3.53;3.22;;;15.40;54.80;;;;;;5051479;28;20630;-60
2021/12/21 05:11:04;;;;;;;3.58;3.20;;;15.80;54.90;;;;;;5050916;28;20179;-61
2021/12/21 05:13:31;;;;;;;4.90;3.67;;;15.30;54.70;;;;;;5051421;28;20260;-61
2021/12/21 05:15:57;;;;;;;3.83;3.42;;;15.30;54.70;;;;;;5051809;28;20186;-61
2021/12/21 05:18:22;;;;;;;3.80;3.28;;;15.30;54.80;;;;;;5050495;28;20207;-60
2021/12/21 05:20:48;;;;;;;4.25;3.38;;;15.30;54.80;;;;;;5051453;28;20521;-60
2021/12/21 05:23:13;;;;;;;5.85;3.50;;;15.30;54.80;;;;;;5051469;28;20696;-60
2021/12/21 05:25:39;;;;;;;4.70;3.45;;;15.30;54.70;;;;;;5050324;28;20175;-59
2021/12/21 05:28:05;;;;;;;4.13;3.47;;;15.30;54.70;;;;;;5051296;28;20179;-60
2021/12/21 05:30:31;;;;;;;4.47;3.50;;;15.30;54.70;;;;;;5050342;28;20171;-59
2021/12/21 05:32:56;;;;;;;4.65;3.53;;;15.30;54.80;;;;;;5050937;28;20279;-59
2021/12/21 05:35:23;;;;;;;6.30;3.90;;;15.30;54.80;;;;;;5051051;28;20186;-59
2021/12/21 05:37:51;;;;;;;3.80;3.40;;;15.20;54.70;;;;;;5050810;28;20203;-60
2021/12/21 05:40:18;;;;;;;4.43;3.60;;;15.20;54.70;;;;;;5051168;28;20660;-60
2021/12/21 05:42:44;;;;;;;4.40;3.47;;;15.20;54.60;;;;;;5050933;28;20182;-60
2021/12/21 05:45:10;;;;;;;3.95;3.55;;;15.20;54.70;;;;;;5050441;28;20232;-59
2021/12/21 05:47:36;;;;;;;2.95;2.70;;;15.20;54.60;;;;;;5050466;28;20230;-60
2021/12/21 05:50:04;;;;;;;5.20;3.00;;;15.20;54.70;;;;;;5051261;28;20179;-60
2021/12/21 05:52:29;;;;;;;3.13;2.83;;;15.20;54.70;;;;;;5051233;28;20179;-61
2021/12/21 05:54:55;;;;;;;3.90;3.42;;;15.20;54.60;;;;;;5054970;28;20235;-60
2021/12/21 05:57:20;;;;;;;4.47;3.45;;;15.10;54.60;;;;;;5054539;28;20163;-61
2021/12/21 05:59:46;;;;;;;3.75;3.20;;;15.20;54.60;;;;;;5054067;28;20228;-60
2021/12/21 06:02:14;;;;;;;5.28;3.45;;;15.10;54.70;;;;;;5054777;28;20201;-60
2021/12/21 06:04:40;;;;;;;3.10;2.85;;;15.40;54.70;;;;;;5054349;28;20182;-59
2021/12/21 06:07:05;;;;;;;5.97;3.70;;;15.20;54.60;;;;;;5054188;28;20170;-59
2021/12/21 06:09:32;;;;;;;3.05;2.63;;;15.20;54.60;;;;;;5054513;28;20171;-60
2021/12/21 06:12:32;;;;;;;3.13;2.65;;;15.30;54.80;;;;;;5054561;28;20214;-61
2021/12/21 06:23:30;;;;;;;4.20;3.00;;;16.00;54.10;;;;;;5054824;28;20186;-60
2021/12/21 06:25:58;;;;;;;3.28;2.97;;;16.20;53.90;;;;;;5054199;28;20179;-60
2021/12/21 06:28:24;;;;;;;3.42;2.88;;;16.50;53.50;;;;;;5053417;28;20571;-60
2021/12/21 06:30:50;;;;;;;2.95;2.75;;;16.60;53.20;;;;;;5054737;28;20200;-60
2021/12/21 06:33:16;;;;;;;3.92;3.08;;;16.70;53.10;;;;;;5054427;28;20665;-60
2021/12/21 06:35:41;;;;;;;3.05;2.78;;;16.80;52.90;;;;;;5053493;28;20186;-60
2021/12/21 06:38:07;;;;;;;3.40;2.58;;;16.90;52.90;;;;;;5054405;28;20186;-60
2021/12/21 06:40:33;;;;;;;3.78;2.42;;;16.90;52.70;;;;;;5053845;28;20216;-60
2021/12/21 06:43:01;;;;;;;4.38;2.83;;;17.00;52.60;;;;;;5052864;28;20194;-60
2021/12/21 06:45:47;;;;;;;3.47;2.72;;;17.00;52.60;;;;;;5053805;28;20256;-60
2021/12/21 06:53:56;;;;;;;3.05;2.72;;;17.00;52.70;;;;;;5041880;28;20246;-60
2021/12/21 06:56:22;;;;;;;3.75;2.92;;;16.90;52.90;;;;;;5053110;28;20176;-61
2021/12/21 06:58:48;;;;;;;3.13;2.83;;;16.80;52.90;;;;;;5053955;28;20200;-60
2021/12/21 07:01:14;;;;;;;4.47;3.00;;;16.80;53.00;;;;;;5053875;28;20211;-60
2021/12/21 07:03:41;;;;;;;3.25;2.85;;;16.70;53.10;;;;;;5051614;28;20358;-60
2021/12/21 07:06:07;;;;;;;4.32;2.83;;;16.70;53.20;;;;;;5053395;28;20182;-60
2021/12/21 07:08:42;;;;;;;3.65;2.53;;;16.80;53.10;;;;;;5053520;28;20198;-60
2021/12/21 07:11:19;;;;;;;3.67;2.55;;;16.80;53.10;;;;;;5053117;28;20178;-60
2021/12/21 07:19:13;;;;;;;2.90;2.30;;;17.00;52.70;;;;;;5053601;28;20186;-61
2021/12/21 07:21:38;;;;;;;2.92;2.53;;;17.10;52.70;;;;;;5053341;28;20175;-62
2021/12/21 07:24:04;;;;;;;2.67;2.30;;;17.10;52.60;;;;;;5052727;28;20560;-60
2021/12/21 07:26:33;;;;;;;3.10;2.40;;;17.20;52.60;;;;;;5053131;28;20175;-62
2021/12/21 07:28:58;;;;;;;3.58;2.30;;;17.10;52.60;;;;;;5053294;28;20221;-59
2021/12/21 07:31:24;;;;;;;3.08;2.20;;;17.20;52.70;;;;;;5052169;28;20167;-59
2021/12/21 07:33:55;;;;;;;2.45;2.20;;;17.20;52.70;;;;;;5053036;28;20227;-60
2021/12/21 07:36:21;;;;;;;3.47;2.78;;;17.30;52.70;;;;;;5053017;28;20660;-61
2021/12/21 07:38:49;;;;;;;2.95;2.42;;;17.50;52.30;;;;;;5052580;28;20186;-74
2021/12/21 07:41:15;;;;;;;3.08;2.20;;;17.80;51.80;;;;;;5052994;28;20258;-66
2021/12/21 07:43:41;;;;;;;4.45;2.70;;;18.00;51.50;;;;;;5052487;28;20199;-69
2021/12/21 07:46:06;;;;;;;3.22;2.83;;;18.20;51.10;;;;;;5052557;28;20254;-67
2021/12/21 07:48:32;;;;;;;3.38;2.72;;;18.40;50.90;;;;;;5052680;28;20261;-67
2021/12/21 07:50:57;;;;;;;3.58;2.00;;;18.60;50.80;;;;;;5052768;28;20254;-69
2021/12/21 07:53:23;;;;;;;2.45;2.25;;;18.60;50.70;;;;;;5051869;28;20207;-68
2021/12/21 07:55:48;;;;;;;4.00;2.65;;;18.70;50.60;;;;;;5051631;28;20559;-68
2021/12/21 07:58:14;;;;;;;3.83;2.22;;;18.70;50.50;;;;;;5052651;28;20673;-70
2021/12/21 08:00:40;;;;;;;2.70;2.47;;;18.80;50.50;;;;;;5052535;28;20274;-74
2021/12/21 08:03:05;;;;;;;4.03;2.85;;;18.70;50.50;;;;;;5052852;28;20643;-72
2021/12/21 08:05:33;;;;;;;4.35;3.00;;;18.60;50.30;;;;;;5051950;28;20179;-67
2021/12/21 08:08:11;;;;;;;4.05;3.05;;;18.60;50.30;;;;;;5052459;28;20645;-67
2021/12/21 08:10:51;;;;;;;3.15;2.85;;;18.60;50.40;;;;;;5051959;28;20179;-67
2021/12/21 08:13:16;;;;;;;3.20;2.90;;;18.50;50.20;;;;;;5051886;28;20221;-67
2021/12/21 08:15:42;;;;;;;5.68;3.45;;;18.50;50.10;;;;;;5051214;28;20179;-67
2021/12/21 08:18:08;;;;;;;4.47;3.60;;;18.50;50.10;;;;;;5052185;28;20186;-67
2021/12/21 08:20:39;;;;;;;4.32;3.28;;;18.50;49.90;;;;;;5051316;28;20195;-66
2021/12/21 08:23:06;;;;;;;3.40;3.10;;;18.50;49.50;;;;;;5052148;28;20179;-70
2021/12/21 08:25:32;;;;;;;5.15;3.42;;;18.60;49.50;;;;;;5051759;28;20175;-68
2021/12/21 08:27:58;;;;;;;4.22;3.55;;;18.60;49.60;;;;;;5051911;28;20183;-67
2021/12/21 08:30:24;;;;;;;5.07;3.10;;;18.60;49.50;;;;;;5051869;28;20614;-67
2021/12/21 08:32:49;;;;;;;4.15;3.20;;;18.80;49.50;;;;;;5052206;28;20626;-66
2021/12/21 08:35:15;;;;;;;3.40;3.10;;;18.90;49.40;;;;;;5051237;28;20175;-67
2021/12/21 08:37:41;;;;;;;3.55;2.88;;;18.90;49.40;;;;;;5051577;28;20175;-66
2021/12/21 08:40:07;;;;;;;3.92;2.65;;;19.10;49.50;;;;;;5051768;28;20199;-65
2021/12/21 08:42:35;;;;;;;4.35;3.38;;;19.10;49.50;;;;;;5051017;28;20605;-65
2021/12/21 08:45:06;;;;;;;2.80;2.60;;;19.20;49.50;;;;;;5052125;28;20179;-66
2021/12/21 08:47:35;;;;;;;3.00;2.70;;;19.20;49.50;;;;;;5050711;28;20231;-65
2021/12/21 08:50:01;;;;;;;4.05;2.60;;;19.30;49.70;;;;;;5051691;28;20270;-65
2021/12/21 08:52:26;;;;;;;5.82;3.17;;;19.30;49.80;;;;;;5051442;28;20697;-65
2021/12/21 08:54:51;;;;;;;3.30;2.83;;;19.30;49.90;;;;;;5051296;28;20175;-65
2021/12/21 08:57:17;;;;;;;5.00;2.65;;;19.30;50.10;;;;;;5051839;28;20175;-65
2021/12/21 08:59:43;;;;;;;3.47;2.63;;;19.40;50.20;;;;;;5051521;28;20167;-68
2021/12/21 09:02:09;;;;;;;3.55;2.90;;;19.30;50.30;;;;;;5050854;28;20174;-67
2021/12/21 09:04:34;;;;;;;5.35;2.63;;;19.30;50.30;;;;;;5051301;28;20511;-67
2021/12/21 09:07:00;;;;;;;4.15;2.60;;;19.20;50.50;;;;;;5051453;28;20201;-67
2021/12/21 09:09:25;;;;;;;5.85;2.95;;;19.10;50.70;;;;;;5050696;28;20536;-68
2021/12/21 09:11:51;;;;;;;4.38;3.03;;;19.00;51.00;;;;;;5051806;28;20242;-68
2021/12/21 09:14:18;;;;;;;4.88;2.40;;;18.90;51.20;;;;;;5051599;28;20246;-68
2021/12/21 09:16:44;;;;;;;3.90;3.10;;;18.70;51.20;;;;;;5050708;28;20206;-68
2021/12/21 09:19:09;;;;;;;5.13;2.90;;;18.60;51.10;;;;;;5051360;28;20222;-69
2021/12/21 09:21:35;;;;;;;3.45;3.00;;;18.60;51.50;;;;;;5050815;28;20250;-68
2021/12/21 09:24:00;;;;;;;9.70;2.85;;;18.60;51.40;;;;;;5050943;28;20197;-67
2021/12/21 09:26:27;;;;;;;5.35;3.38;;;18.50;51.60;;;;;;5051181;28;20170;-68
2021/12/21 09:28:53;;;;;;;3.97;3.15;;;18.50;51.90;;;;;;5055219;28;20233;-69
2021/12/21 09:31:18;;;;;;;3.42;2.75;;;18.40;51.80;;;;;;5054474;28;20176;-68
2021/12/21 09:33:45;;;;;;;4.30;2.95;;;18.50;51.80;;;;;;5055088;28;20209;-70
2021/12/21 09:36:11;;;;;;;4.75;3.42;;;18.40;51.90;;;;;;5055247;28;20540;-69
2021/12/21 09:38:37;;;;;;;3.70;3.15;;;18.30;52.00;;;;;;5054494;28;20629;-65
2021/12/21 09:41:04;;;;;;;4.80;3.63;;;18.30;52.20;;;;;;5055671;28;20599;-63
2021/12/21 09:43:29;;;;;;;8.40;4.28;;;18.20;51.80;;;;;;5055201;28;20190;-68
2021/12/21 09:45:55;;;;;;;6.68;4.30;;;18.00;51.10;;;;;;5055113;28;20163;-65
2021/12/21 09:48:22;;;;;;;5.72;4.60;;;17.90;50.90;;;;;;5055480;28;20254;-67
2021/12/21 09:50:47;;;;;;;7.05;4.13;;;17.90;51.30;;;;;;5054921;28;20183;-65
2021/12/21 09:53:13;;;;;;;5.93;4.85;;;17.90;51.50;;;;;;5055432;28;20207;-68
2021/12/21 09:55:38;;;;;;;6.88;4.28;;;17.90;52.30;;;;;;5055397;28;20203;-66
2021/12/21 09:58:04;;;;;;;5.95;4.00;;;18.00;51.90;;;;;;5054464;28;20188;-66
2021/12/21 10:00:32;;;;;;;4.65;3.67;;;17.90;52.00;;;;;;5055088;28;20171;-66
2021/12/21 10:03:02;;;;;;;4.78;3.55;;;18.00;52.00;;;;;;5055290;28;20224;-67
2021/12/21 10:05:28;;;;;;;5.32;3.42;;;18.00;52.10;;;;;;5054200;28;20179;-65
2021/12/21 10:08:24;;;;;;;6.30;4.18;;;18.00;52.20;;;;;;5055245;28;20178;-66
2021/12/21 10:10:50;;;;;;;5.93;4.13;;;18.00;51.80;;;;;;5053882;28;20578;-64
2021/12/21 10:13:18;;;;;;;8.43;4.22;;;18.00;51.40;;;;;;5054734;28;20199;-66
2021/12/21 10:15:46;;;;;;;6.22;4.22;;;18.10;51.30;;;;;;5054778;28;20265;-65
2021/12/21 10:18:11;;;;;;;7.65;4.00;;;18.10;51.20;;;;;;5055151;28;20183;-65
2021/12/21 10:20:47;;;;;;;4.80;3.60;;;18.20;51.10;;;;;;5053714;28;20179;-65
2021/12/21 10:23:20;;;;;;;6.18;3.72;;;18.30;51.00;;;;;;5054618;28;20262;-65
2021/12/21 10:25:48;;;;;;;5.55;4.13;;;18.40;50.90;;;;;;5054779;28;20266;-65
2021/12/21 10:28:38;;;;;;;5.22;3.88;;;18.40;50.70;;;;;;5053792;28;20649;-64
2021/12/21 10:31:06;;;;;;;5.53;4.32;;;18.40;50.60;;;;;;5054758;28;20274;-64
2021/12/21 10:33:35;;;;;;;8.63;4.43;;;18.50;50.60;;;;;;5053512;28;20210;-67
2021/12/21 10:36:02;;;;;;;9.95;4.30;;;18.50;50.50;;;;;;5054646;28;20241;-65
2021/12/21 10:38:35;;;;;;;6.80;4.35;;;18.50;50.50;;;;;;5053400;28;20187;-64
2021/12/21 10:41:08;;;;;;;5.43;3.80;;;18.60;50.40;;;;;;5053567;28;20247;-63
2021/12/21 10:43:34;;;;;;;4.53;3.30;;;18.70;50.60;;;;;;5054250;28;20262;-66
2021/12/21 10:46:00;;;;;;;5.88;3.50;;;18.70;50.50;;;;;;5054406;28;20226;-67
2021/12/21 10:48:26;;;;;;;6.10;3.40;;;18.70;50.50;;;;;;5051690;28;20328;-67
2021/12/21 10:50:51;;;;;;;7.25;3.60;;;18.60;50.70;;;;;;5054164;28;20183;-69
2021/12/21 10:53:23;;;;;;;7.85;3.47;;;18.50;50.80;;;;;;5053896;28;20217;-68
2021/12/21 10:55:58;;;;;;;5.07;3.85;;;18.40;51.10;;;;;;5053569;28;20201;-68
2021/12/21 10:58:26;;;;;;;5.82;3.80;;;18.40;51.00;;;;;;5052817;28;20257;-69
2021/12/21 11:00:54;;;;;;;5.80;4.22;;;18.30;50.90;;;;;;5054125;28;20179;-68
2021/12/21 11:03:52;;;;;;;9.90;4.57;;;18.30;51.50;;;;;;5052840;28;20175;-66
2021/12/21 11:06:19;;;;;;;5.63;3.75;;;18.40;50.90;;;;;;5054054;28;20191;-64
2021/12/21 11:08:49;;;;;;;7.07;3.78;;;18.40;50.90;;;;;;5053158;28;20202;-63
2021/12/21 11:11:42;;;;;;;8.73;4.22;;;18.50;50.80;;;;;;5053853;28;20199;-63
2021/12/21 11:14:09;;;;;;;5.90;3.75;;;18.50;50.90;;;;;;5053590;28;20222;-63
2021/12/21 11:16:40;;;;;;;9.15;4.00;;;18.50;50.90;;;;;;5052694;28;20168;-63
2021/12/21 11:19:06;;;;;;;6.30;3.67;;;18.60;50.90;;;;;;5053535;28;20654;-63
2021/12/21 11:21:31;;;;;;;4.05;3.40;;;18.60;50.80;;;;;;5053285;28;20263;-63
2021/12/21 11:24:00;;;;;;;4.00;3.60;;;18.70;50.90;;;;;;5052847;28;20262;-63
2021/12/21 11:26:26;;;;;;;4.28;3.60;;;18.70;51.10;;;;;;5051871;28;20187;-65
2021/12/21 11:28:51;;;;;;;4.95;3.63;;;18.60;51.10;;;;;;5053596;28;20179;-64
2021/12/21 11:31:17;;;;;;;5.15;3.70;;;18.50;51.40;;;;;;5034710;28;20197;-65
2021/12/21 11:33:44;;;;;;;5.05;3.08;;;18.50;51.50;;;;;;5051780;28;20580;-71
2021/12/21 11:38:56;;;;;;;4.53;3.50;;;18.40;51.80;;;;;;5053177;28;20189;-64
2021/12/21 11:41:21;;;;;;;5.22;3.63;;;18.40;51.70;;;;;;5051639;28;20641;-69
2021/12/21 11:44:02;;;;;;;6.07;3.90;;;18.40;51.30;;;;;;5051203;28;20186;-66
2021/12/21 11:46:51;;;;;;;6.05;3.70;;;18.40;51.10;;;;;;5051514;28;20270;-69
2021/12/21 11:49:40;;;;;;;8.63;3.63;;;18.40;50.90;;;;;;5052062;28;20249;-67
2021/12/21 11:52:18;;;;;;;6.22;3.55;;;18.30;50.80;;;;;;5050844;28;20602;-67
2021/12/21 11:54:49;;;;;;;4.22;3.78;;;18.30;50.90;;;;;;5052817;28;20214;-68
2021/12/21 11:57:18;;;;;;;7.68;3.83;;;18.20;50.80;;;;;;5052948;28;20195;-67
2021/12/21 11:59:44;;;;;;;4.82;3.28;;;18.20;50.90;;;;;;5052207;28;20668;-68
2021/12/21 12:02:10;;;;;;;7.15;3.65;;;18.10;51.10;;;;;;5052784;28;20240;-74
2021/12/21 12:04:35;;;;;;;6.00;3.45;;;18.10;51.10;;;;;;5051755;28;20270;-64
2021/12/21 12:07:01;;;;;;;5.85;3.80;;;18.00;51.20;;;;;;5052651;28;20172;-63
2021/12/21 12:09:31;;;;;;;6.68;4.03;;;18.00;51.10;;;;;;5052226;28;20215;-67
2021/12/21 12:12:11;;;;;;;5.07;3.60;;;18.00;50.90;;;;;;5052212;28;20171;-66
2021/12/21 12:14:37;;;;;;;5.32;3.75;;;18.00;50.90;;;;;;5052202;28;20229;-66
2021/12/21 12:17:09;;;;;;;5.38;3.75;;;18.00;51.00;;;;;;5052958;28;20537;-66
2021/12/21 12:19:37;;;;;;;3.83;3.30;;;18.00;51.10;;;;;;5050703;28;20191;-66
2021/12/21 12:22:08;;;;;;;6.68;3.45;;;18.10;51.10;;;;;;5052819;28;20179;-65
2021/12/21 12:24:38;;;;;;;5.25;3.35;;;18.10;51.20;;;;;;5052366;28;20563;-66
2021/12/21 12:27:17;;;;;;;5.00;3.47;;;18.00;51.20;;;;;;5051785;28;20656;-67
2021/12/21 12:29:48;;;;;;;4.35;3.35;;;18.00;51.40;;;;;;5052443;28;20270;-67
2021/12/21 12:32:14;;;;;;;4.53;3.08;;;18.00;51.50;;;;;;5052621;28;20195;-73
2021/12/21 12:34:39;;;;;;;4.57;3.10;;;18.10;51.90;;;;;;5051159;28;20261;-66
2021/12/21 12:37:23;;;;;;;6.53;3.20;;;18.10;51.60;;;;;;5052172;28;20172;-65
2021/12/21 12:39:59;;;;;;;4.43;3.47;;;18.10;51.60;;;;;;5051484;28;20685;-65
2021/12/21 12:42:29;;;;;;;4.70;3.30;;;18.10;51.80;;;;;;5051901;28;20630;-65
2021/12/21 12:45:15;;;;;;;7.63;3.65;;;18.10;51.80;;;;;;5052049;28;20670;-66
2021/12/21 12:47:45;;;;;;;5.35;3.38;;;18.30;51.80;;;;;;5051090;28;20234;-64
2021/12/21 12:50:22;;;;;;;3.53;2.75;;;18.40;51.80;;;;;;5051989;28;20261;-65
2021/12/21 12:53:01;;;;;;;5.88;3.38;;;18.50;51.60;;;;;;5052043;28;20210;-65
2021/12/21 12:55:51;;;;;;;4.40;2.88;;;18.70;51.50;;;;;;5051156;28;20297;-64
2021/12/21 12:58:22;;;;;;;4.32;2.40;;;19.00;51.40;;;;;;5051765;28;20265;-67
2021/12/21 13:01:03;;;;;;;3.80;3.30;;;18.90;51.20;;;;;;5051476;28;20553;-68
2021/12/21 13:03:36;;;;;;;5.10;2.88;;;19.10;51.10;;;;;;5051523;28;20257;-66
2021/12/21 13:06:08;;;;;;;5.50;3.05;;;19.10;51.00;;;;;;5052240;28;20176;-67
2021/12/21 13:08:33;;;;;;;5.35;3.00;;;19.20;50.90;;;;;;5051051;28;20537;-65
2021/12/21 13:11:00;;;;;;;6.55;3.38;;;19.30;50.80;;;;;;5052290;28;20678;-64
2021/12/21 13:13:37;;;;;;;6.00;3.03;;;19.40;50.70;;;;;;5051552;28;20210;-64
2021/12/21 13:16:10;;;;;;;4.45;2.92;;;19.60;50.50;;;;;;5051394;28;20185;-64
2021/12/21 13:18:43;;;;;;;3.67;2.60;;;19.60;50.50;;;;;;5051765;28;20179;-65
2021/12/21 13:21:32;;;;;;;4.63;2.60;;;19.70;50.40;;;;;;5051558;28;20649;-64
2021/12/21 13:24:09;;;;;;;4.03;2.88;;;19.60;50.50;;;;;;5051053;28;20178;-64
2021/12/21 13:26:41;;;;;;;4.63;3.20;;;19.50;50.60;;;;;;5051523;28;20178;-65
2021/12/21 13:29:10;;;;;;;4.30;2.90;;;19.40;50.70;;;;;;5051336;28;20187;-69
2021/12/21 13:31:39;;;;;;;6.07;2.95;;;19.40;51.00;;;;;;5051640;28;20175;-68
2021/12/21 13:34:05;;;;;;;4.20;2.95;;;19.20;51.30;;;;;;5051141;28;20253;-67
2021/12/21 13:36:59;;;;;;;3.72;2.25;;;19.20;51.40;;;;;;5050432;28;20213;-66
2021/12/21 13:39:38;;;;;;;3.53;2.63;;;19.10;51.50;;;;;;5048991;28;20566;-65
2021/12/21 13:42:10;;;;;;;6.63;3.10;;;19.00;51.90;;;;;;5051519;28;20167;-65
2021/12/21 13:44:45;;;;;;;5.32;2.90;;;19.00;52.00;;;;;;5048654;28;20167;-65